sensor_id;sensor_type;location;lat;lon;timestamp;temperature;humidity
19435;DHT22;9853;50.848;4.108;2023-04-24T00:00:17;11.30;99.90
19435;DHT22;9853;50.848;4.108;2023-04-24T00:02:18;11.40;99.90
19435;DHT22;9853;50.848;4.108;2023-04-24T00:04:19;11.30;99.90
19435;DHT22;9853;50.848;4.108;2023-04-24T00:06:20;11.20;99.90
19435;DHT22;9853;50.848;4.108;2023-04-24T00:08:20;11.10;99.90
19435;DHT22;9853;50.848;4.108;2023-04-24T00:10:23;11.10;99.90
19435;DHT22;9853;50.848;4.108;2023-04-24T00:12:24;11.20;99.90
19435;DHT22;9853;50.848;4.108;2023-04-24T00:14:25;11.00;99.90
19435;DHT22;9853;50.848;4.108;2023-04-24T00:16:26;11.10;99.90
19435;DHT22;9853;50.848;4.108;2023-04-24T00:18:27;11.10;99.90
19435;DHT22;9853;50.848;4.108;2023-04-24T00:20:28;11.10;99.90
19435;DHT22;9853;50.848;4.108;2023-04-24T00:22:30;11.20;99.90
19435;DHT22;9853;50.848;4.108;2023-04-24T00:24:31;11.30;99.90
19435;DHT22;9853;50.848;4.108;2023-04-24T00:26:32;11.30;99.90
19435;DHT22;9853;50.848;4.108;2023-04-24T00:28:33;11.10;99.90
19435;DHT22;9853;50.848;4.108;2023-04-24T00:30:33;11.10;99.90
19435;DHT22;9853;50.848;4.108;2023-04-24T00:32:34;11.00;99.90
19435;DHT22;9853;50.848;4.108;2023-04-24T00:34:35;10.90;99.90
19435;DHT22;9853;50.848;4.108;2023-04-24T00:36:36;10.90;99.90
19435;DHT22;9853;50.848;4.108;2023-04-24T00:38:37;10.70;99.90
19435;DHT22;9853;50.848;4.108;2023-04-24T00:40:38;10.60;99.90
19435;DHT22;9853;50.848;4.108;2023-04-24T00:42:40;10.70;99.90
19435;DHT22;9853;50.848;4.108;2023-04-24T00:44:41;11.00;99.90
19435;DHT22;9853;50.848;4.108;2023-04-24T00:46:42;11.00;99.90
19435;DHT22;9853;50.848;4.108;2023-04-24T00:48:43;11.10;99.90
19435;DHT22;9853;50.848;4.108;2023-04-24T00:50:44;10.80;99.90
19435;DHT22;9853;50.848;4.108;2023-04-24T00:52:48;10.80;99.90
19435;DHT22;9853;50.848;4.108;2023-04-24T00:54:49;10.80;99.90
19435;DHT22;9853;50.848;4.108;2023-04-24T00:56:50;10.90;99.90
19435;DHT22;9853;50.848;4.108;2023-04-24T00:58:51;10.80;99.90
19435;DHT22;9853;50.848;4.108;2023-04-24T01:00:53;10.70;99.90
19435;DHT22;9853;50.848;4.108;2023-04-24T01:02:55;10.60;99.90
19435;DHT22;9853;50.848;4.108;2023-04-24T01:04:56;10.60;99.90
19435;DHT22;9853;50.848;4.108;2023-04-24T01:06:57;10.60;99.90
19435;DHT22;9853;50.848;4.108;2023-04-24T01:08:58;10.60;99.90
19435;DHT22;9853;50.848;4.108;2023-04-24T01:11:03;10.60;99.90
19435;DHT22;9853;50.848;4.108;2023-04-24T01:13:04;10.40;99.90
19435;DHT22;9853;50.848;4.108;2023-04-24T01:15:05;10.40;99.90
19435;DHT22;9853;50.848;4.108;2023-04-24T01:17:07;10.60;99.90
19435;DHT22;9853;50.848;4.108;2023-04-24T01:19:10;10.70;99.90
19435;DHT22;9853;50.848;4.108;2023-04-24T01:21:14;10.70;99.90
19435;DHT22;9853;50.848;4.108;2023-04-24T01:23:15;10.80;99.90
19435;DHT22;9853;50.848;4.108;2023-04-24T01:25:16;10.80;99.90
19435;DHT22;9853;50.848;4.108;2023-04-24T01:27:17;10.80;99.90
19435;DHT22;9853;50.848;4.108;2023-04-24T01:29:19;10.80;99.90
19435;DHT22;9853;50.848;4.108;2023-04-24T01:31:20;10.80;99.90
19435;DHT22;9853;50.848;4.108;2023-04-24T01:33:21;10.60;99.90
19435;DHT22;9853;50.848;4.108;2023-04-24T01:35:22;10.50;99.90
19435;DHT22;9853;50.848;4.108;2023-04-24T01:37:23;10.40;99.90
19435;DHT22;9853;50.848;4.108;2023-04-24T01:39:24;10.30;99.90
19435;DHT22;9853;50.848;4.108;2023-04-24T01:41:28;10.30;99.90
19435;DHT22;9853;50.848;4.108;2023-04-24T01:43:30;10.30;99.90
19435;DHT22;9853;50.848;4.108;2023-04-24T01:45:32;10.30;99.90
19435;DHT22;9853;50.848;4.108;2023-04-24T01:47:33;10.40;99.90
19435;DHT22;9853;50.848;4.108;2023-04-24T01:49:34;10.30;99.90
19435;DHT22;9853;50.848;4.108;2023-04-24T01:51:35;10.50;99.90
19435;DHT22;9853;50.848;4.108;2023-04-24T01:53:37;10.50;99.90
19435;DHT22;9853;50.848;4.108;2023-04-24T01:55:38;10.50;99.90
19435;DHT22;9853;50.848;4.108;2023-04-24T01:57:39;10.50;99.90
19435;DHT22;9853;50.848;4.108;2023-04-24T01:59:40;10.60;99.90
19435;DHT22;9853;50.848;4.108;2023-04-24T02:01:41;10.70;99.90
19435;DHT22;9853;50.848;4.108;2023-04-24T02:03:42;10.70;99.90
19435;DHT22;9853;50.848;4.108;2023-04-24T02:05:45;10.70;99.90
19435;DHT22;9853;50.848;4.108;2023-04-24T02:07:46;10.60;99.90
19435;DHT22;9853;50.848;4.108;2023-04-24T02:09:47;10.50;99.90
19435;DHT22;9853;50.848;4.108;2023-04-24T02:11:48;10.30;99.90
19435;DHT22;9853;50.848;4.108;2023-04-24T02:13:49;10.30;99.90
19435;DHT22;9853;50.848;4.108;2023-04-24T02:15:50;10.20;99.90
19435;DHT22;9853;50.848;4.108;2023-04-24T02:17:51;10.10;99.90
19435;DHT22;9853;50.848;4.108;2023-04-24T02:19:52;10.30;99.90
19435;DHT22;9853;50.848;4.108;2023-04-24T02:21:53;10.30;99.90
19435;DHT22;9853;50.848;4.108;2023-04-24T02:23:54;10.30;99.90
19435;DHT22;9853;50.848;4.108;2023-04-24T02:25:54;10.30;99.90
19435;DHT22;9853;50.848;4.108;2023-04-24T02:27:56;10.30;99.90
19435;DHT22;9853;50.848;4.108;2023-04-24T02:29:57;10.50;99.90
19435;DHT22;9853;50.848;4.108;2023-04-24T02:31:57;10.50;99.90
19435;DHT22;9853;50.848;4.108;2023-04-24T02:33:58;10.30;99.90
19435;DHT22;9853;50.848;4.108;2023-04-24T02:35:59;10.40;99.90
19435;DHT22;9853;50.848;4.108;2023-04-24T02:38:00;10.40;99.90
19435;DHT22;9853;50.848;4.108;2023-04-24T02:40:00;10.30;99.90
19435;DHT22;9853;50.848;4.108;2023-04-24T02:42:01;10.20;99.90
19435;DHT22;9853;50.848;4.108;2023-04-24T02:44:02;10.10;99.90
19435;DHT22;9853;50.848;4.108;2023-04-24T02:46:03;10.20;99.90
19435;DHT22;9853;50.848;4.108;2023-04-24T02:48:04;10.40;99.90
19435;DHT22;9853;50.848;4.108;2023-04-24T02:50:05;10.30;99.90
19435;DHT22;9853;50.848;4.108;2023-04-24T02:52:06;10.30;99.90
19435;DHT22;9853;50.848;4.108;2023-04-24T02:54:08;10.20;99.90
19435;DHT22;9853;50.848;4.108;2023-04-24T02:56:10;10.20;99.90
19435;DHT22;9853;50.848;4.108;2023-04-24T02:58:12;10.30;99.90
19435;DHT22;9853;50.848;4.108;2023-04-24T03:00:13;10.30;99.90
19435;DHT22;9853;50.848;4.108;2023-04-24T03:02:14;10.20;99.90
19435;DHT22;9853;50.848;4.108;2023-04-24T03:04:15;10.10;99.90
19435;DHT22;9853;50.848;4.108;2023-04-24T03:06:16;10.20;99.90
19435;DHT22;9853;50.848;4.108;2023-04-24T03:08:18;10.20;99.90
19435;DHT22;9853;50.848;4.108;2023-04-24T03:10:19;10.20;99.90
19435;DHT22;9853;50.848;4.108;2023-04-24T03:12:19;10.10;99.90
19435;DHT22;9853;50.848;4.108;2023-04-24T03:14:20;10.30;99.90
19435;DHT22;9853;50.848;4.108;2023-04-24T03:16:21;10.20;99.90
19435;DHT22;9853;50.848;4.108;2023-04-24T03:18:22;10.00;99.90
19435;DHT22;9853;50.848;4.108;2023-04-24T03:20:24;9.90;99.90
19435;DHT22;9853;50.848;4.108;2023-04-24T03:22:25;10.10;99.90
19435;DHT22;9853;50.848;4.108;2023-04-24T03:24:27;10.20;99.90
19435;DHT22;9853;50.848;4.108;2023-04-24T03:26:29;10.40;99.90
19435;DHT22;9853;50.848;4.108;2023-04-24T03:28:47;10.40;99.90
19435;DHT22;9853;50.848;4.108;2023-04-24T03:30:48;10.40;99.90
19435;DHT22;9853;50.848;4.108;2023-04-24T03:32:50;10.40;99.90
19435;DHT22;9853;50.848;4.108;2023-04-24T03:34:55;10.40;99.90
19435;DHT22;9853;50.848;4.108;2023-04-24T03:36:56;10.30;99.90
19435;DHT22;9853;50.848;4.108;2023-04-24T03:38:57;10.40;99.90
19435;DHT22;9853;50.848;4.108;2023-04-24T03:41:03;10.50;99.90
19435;DHT22;9853;50.848;4.108;2023-04-24T03:43:14;10.60;99.90
19435;DHT22;9853;50.848;4.108;2023-04-24T03:45:15;10.40;99.90
19435;DHT22;9853;50.848;4.108;2023-04-24T03:47:20;10.50;99.90
19435;DHT22;9853;50.848;4.108;2023-04-24T03:49:22;10.40;99.90
19435;DHT22;9853;50.848;4.108;2023-04-24T03:51:23;10.60;99.90
19435;DHT22;9853;50.848;4.108;2023-04-24T03:53:27;10.50;99.90
19435;DHT22;9853;50.848;4.108;2023-04-24T03:55:29;10.30;99.90
19435;DHT22;9853;50.848;4.108;2023-04-24T03:57:30;10.30;99.90
19435;DHT22;9853;50.848;4.108;2023-04-24T03:59:47;10.30;99.90
19435;DHT22;9853;50.848;4.108;2023-04-24T04:01:51;10.40;99.90
19435;DHT22;9853;50.848;4.108;2023-04-24T04:03:52;10.30;99.90
19435;DHT22;9853;50.848;4.108;2023-04-24T04:05:56;10.30;99.90
19435;DHT22;9853;50.848;4.108;2023-04-24T04:07:57;10.30;99.90
19435;DHT22;9853;50.848;4.108;2023-04-24T04:09:58;10.40;99.90
19435;DHT22;9853;50.848;4.108;2023-04-24T04:11:59;10.50;99.90
19435;DHT22;9853;50.848;4.108;2023-04-24T04:14:01;10.40;99.90
19435;DHT22;9853;50.848;4.108;2023-04-24T04:16:02;10.40;99.90
19435;DHT22;9853;50.848;4.108;2023-04-24T04:18:02;10.30;99.90
19435;DHT22;9853;50.848;4.108;2023-04-24T04:20:04;10.40;99.90
19435;DHT22;9853;50.848;4.108;2023-04-24T04:22:10;10.40;99.90
19435;DHT22;9853;50.848;4.108;2023-04-24T04:24:16;10.30;99.90
19435;DHT22;9853;50.848;4.108;2023-04-24T04:26:19;10.20;99.90
19435;DHT22;9853;50.848;4.108;2023-04-24T04:28:39;10.10;99.90
19435;DHT22;9853;50.848;4.108;2023-04-24T04:30:40;10.10;99.90
19435;DHT22;9853;50.848;4.108;2023-04-24T04:32:41;10.20;99.90
19435;DHT22;9853;50.848;4.108;2023-04-24T04:34:42;10.30;99.90
19435;DHT22;9853;50.848;4.108;2023-04-24T04:36:46;10.30;99.90
19435;DHT22;9853;50.848;4.108;2023-04-24T04:39:19;10.00;99.90
19435;DHT22;9853;50.848;4.108;2023-04-24T04:41:46;9.60;99.90
19435;DHT22;9853;50.848;4.108;2023-04-24T04:43:49;9.60;99.90
19435;DHT22;9853;50.848;4.108;2023-04-24T04:45:51;9.70;99.90
19435;DHT22;9853;50.848;4.108;2023-04-24T04:48:01;9.70;99.90
19435;DHT22;9853;50.848;4.108;2023-04-24T04:50:05;9.80;99.90
19435;DHT22;9853;50.848;4.108;2023-04-24T04:52:07;9.70;99.90
19435;DHT22;9853;50.848;4.108;2023-04-24T04:54:08;9.70;99.90
19435;DHT22;9853;50.848;4.108;2023-04-24T04:56:10;9.70;99.90
19435;DHT22;9853;50.848;4.108;2023-04-24T04:58:15;9.60;99.90
19435;DHT22;9853;50.848;4.108;2023-04-24T05:00:16;9.70;99.90
19435;DHT22;9853;50.848;4.108;2023-04-24T05:02:22;9.80;99.90
19435;DHT22;9853;50.848;4.108;2023-04-24T05:04:23;9.90;99.90
19435;DHT22;9853;50.848;4.108;2023-04-24T05:06:24;9.80;99.90
19435;DHT22;9853;50.848;4.108;2023-04-24T05:08:26;9.90;99.90
19435;DHT22;9853;50.848;4.108;2023-04-24T05:10:27;10.00;99.90
19435;DHT22;9853;50.848;4.108;2023-04-24T05:12:30;9.80;99.90
19435;DHT22;9853;50.848;4.108;2023-04-24T05:14:31;9.90;99.90
19435;DHT22;9853;50.848;4.108;2023-04-24T05:16:32;9.80;99.90
19435;DHT22;9853;50.848;4.108;2023-04-24T05:18:33;9.90;99.90
19435;DHT22;9853;50.848;4.108;2023-04-24T05:20:35;10.00;99.90
19435;DHT22;9853;50.848;4.108;2023-04-24T05:22:36;10.10;99.90
19435;DHT22;9853;50.848;4.108;2023-04-24T05:24:37;10.20;99.90
19435;DHT22;9853;50.848;4.108;2023-04-24T05:26:59;10.20;99.90
19435;DHT22;9853;50.848;4.108;2023-04-24T05:29:05;10.10;99.90
19435;DHT22;9853;50.848;4.108;2023-04-24T05:31:06;10.00;99.90
19435;DHT22;9853;50.848;4.108;2023-04-24T05:33:07;10.10;99.90
19435;DHT22;9853;50.848;4.108;2023-04-24T05:35:09;10.20;99.90
19435;DHT22;9853;50.848;4.108;2023-04-24T05:37:13;10.30;99.90
19435;DHT22;9853;50.848;4.108;2023-04-24T05:39:15;10.20;99.90
19435;DHT22;9853;50.848;4.108;2023-04-24T05:41:16;10.20;99.90
19435;DHT22;9853;50.848;4.108;2023-04-24T05:43:16;10.20;99.90
19435;DHT22;9853;50.848;4.108;2023-04-24T05:45:17;10.10;99.90
19435;DHT22;9853;50.848;4.108;2023-04-24T05:47:18;10.10;99.90
19435;DHT22;9853;50.848;4.108;2023-04-24T05:49:19;10.10;99.90
19435;DHT22;9853;50.848;4.108;2023-04-24T05:51:20;10.00;99.90
19435;DHT22;9853;50.848;4.108;2023-04-24T05:53:21;10.10;99.90
19435;DHT22;9853;50.848;4.108;2023-04-24T05:55:22;10.00;99.90
19435;DHT22;9853;50.848;4.108;2023-04-24T05:57:23;10.20;99.90
19435;DHT22;9853;50.848;4.108;2023-04-24T05:59:31;10.20;99.90
19435;DHT22;9853;50.848;4.108;2023-04-24T06:01:32;10.20;99.90
19435;DHT22;9853;50.848;4.108;2023-04-24T06:03:41;10.10;99.90
19435;DHT22;9853;50.848;4.108;2023-04-24T06:05:42;10.10;99.90
19435;DHT22;9853;50.848;4.108;2023-04-24T06:07:44;10.20;99.90
19435;DHT22;9853;50.848;4.108;2023-04-24T06:09:47;10.20;99.90
19435;DHT22;9853;50.848;4.108;2023-04-24T06:11:49;10.10;99.90
19435;DHT22;9853;50.848;4.108;2023-04-24T06:13:53;10.20;99.90
19435;DHT22;9853;50.848;4.108;2023-04-24T06:16:12;10.10;99.90
19435;DHT22;9853;50.848;4.108;2023-04-24T06:18:16;9.90;99.90
19435;DHT22;9853;50.848;4.108;2023-04-24T06:20:17;9.80;99.90
19435;DHT22;9853;50.848;4.108;2023-04-24T06:22:22;9.80;99.90
19435;DHT22;9853;50.848;4.108;2023-04-24T06:24:27;9.80;99.90
19435;DHT22;9853;50.848;4.108;2023-04-24T06:26:28;9.80;99.90
19435;DHT22;9853;50.848;4.108;2023-04-24T06:28:29;9.80;99.90
19435;DHT22;9853;50.848;4.108;2023-04-24T06:30:29;10.00;99.90
19435;DHT22;9853;50.848;4.108;2023-04-24T06:32:31;10.20;99.90
19435;DHT22;9853;50.848;4.108;2023-04-24T06:34:35;10.20;99.90
19435;DHT22;9853;50.848;4.108;2023-04-24T06:36:37;10.20;99.90
19435;DHT22;9853;50.848;4.108;2023-04-24T06:38:38;10.30;99.90
19435;DHT22;9853;50.848;4.108;2023-04-24T06:40:39;10.30;99.90
19435;DHT22;9853;50.848;4.108;2023-04-24T06:42:40;10.10;99.90
19435;DHT22;9853;50.848;4.108;2023-04-24T06:44:43;10.20;99.90
19435;DHT22;9853;50.848;4.108;2023-04-24T06:46:43;10.30;99.90
19435;DHT22;9853;50.848;4.108;2023-04-24T06:48:44;10.40;99.90
19435;DHT22;9853;50.848;4.108;2023-04-24T06:50:45;10.40;99.90
19435;DHT22;9853;50.848;4.108;2023-04-24T06:52:47;10.40;99.90
19435;DHT22;9853;50.848;4.108;2023-04-24T06:54:48;10.60;99.90
19435;DHT22;9853;50.848;4.108;2023-04-24T06:56:49;10.70;99.90
19435;DHT22;9853;50.848;4.108;2023-04-24T06:58:51;10.80;99.90
19435;DHT22;9853;50.848;4.108;2023-04-24T07:00:52;10.80;99.90
19435;DHT22;9853;50.848;4.108;2023-04-24T07:02:53;10.80;99.90
19435;DHT22;9853;50.848;4.108;2023-04-24T07:04:54;10.80;99.90
19435;DHT22;9853;50.848;4.108;2023-04-24T07:06:55;10.70;99.90
19435;DHT22;9853;50.848;4.108;2023-04-24T07:08:56;10.80;99.90
19435;DHT22;9853;50.848;4.108;2023-04-24T07:10:57;10.90;99.90
19435;DHT22;9853;50.848;4.108;2023-04-24T07:12:58;11.10;99.90
19435;DHT22;9853;50.848;4.108;2023-04-24T07:15:00;11.20;99.90
19435;DHT22;9853;50.848;4.108;2023-04-24T07:17:02;11.20;99.90
19435;DHT22;9853;50.848;4.108;2023-04-24T07:19:05;11.10;99.90
19435;DHT22;9853;50.848;4.108;2023-04-24T07:21:06;10.90;99.90
19435;DHT22;9853;50.848;4.108;2023-04-24T07:23:07;10.90;99.90
19435;DHT22;9853;50.848;4.108;2023-04-24T07:25:09;10.90;99.90
19435;DHT22;9853;50.848;4.108;2023-04-24T07:27:10;10.70;99.90
19435;DHT22;9853;50.848;4.108;2023-04-24T07:29:10;10.80;99.90
19435;DHT22;9853;50.848;4.108;2023-04-24T07:31:11;10.50;99.90
19435;DHT22;9853;50.848;4.108;2023-04-24T07:33:12;10.60;99.90
19435;DHT22;9853;50.848;4.108;2023-04-24T07:35:13;10.70;99.90
19435;DHT22;9853;50.848;4.108;2023-04-24T07:37:14;10.90;99.90
19435;DHT22;9853;50.848;4.108;2023-04-24T07:39:15;11.30;99.90
19435;DHT22;9853;50.848;4.108;2023-04-24T07:41:16;11.50;99.90
19435;DHT22;9853;50.848;4.108;2023-04-24T07:43:17;11.60;99.90
19435;DHT22;9853;50.848;4.108;2023-04-24T07:45:21;11.70;99.90
19435;DHT22;9853;50.848;4.108;2023-04-24T07:47:23;11.60;99.90
19435;DHT22;9853;50.848;4.108;2023-04-24T07:49:24;11.60;99.90
19435;DHT22;9853;50.848;4.108;2023-04-24T07:51:25;11.50;99.90
19435;DHT22;9853;50.848;4.108;2023-04-24T07:53:27;11.40;99.90
19435;DHT22;9853;50.848;4.108;2023-04-24T07:55:29;11.40;99.90
19435;DHT22;9853;50.848;4.108;2023-04-24T07:57:33;11.30;99.90
19435;DHT22;9853;50.848;4.108;2023-04-24T07:59:35;11.30;99.90
19435;DHT22;9853;50.848;4.108;2023-04-24T08:01:36;11.10;99.90
19435;DHT22;9853;50.848;4.108;2023-04-24T08:03:36;11.10;99.90
19435;DHT22;9853;50.848;4.108;2023-04-24T08:05:37;11.20;99.90
19435;DHT22;9853;50.848;4.108;2023-04-24T08:07:41;11.30;99.90
19435;DHT22;9853;50.848;4.108;2023-04-24T08:09:43;11.50;99.90
19435;DHT22;9853;50.848;4.108;2023-04-24T08:11:46;11.70;99.90
19435;DHT22;9853;50.848;4.108;2023-04-24T08:13:47;11.80;99.90
19435;DHT22;9853;50.848;4.108;2023-04-24T08:15:48;11.60;99.90
19435;DHT22;9853;50.848;4.108;2023-04-24T08:17:49;11.60;99.90
19435;DHT22;9853;50.848;4.108;2023-04-24T08:19:51;11.40;99.90
19435;DHT22;9853;50.848;4.108;2023-04-24T08:21:56;11.20;99.90
19435;DHT22;9853;50.848;4.108;2023-04-24T08:23:57;11.30;99.90
19435;DHT22;9853;50.848;4.108;2023-04-24T08:25:58;11.80;99.90
19435;DHT22;9853;50.848;4.108;2023-04-24T08:27:59;12.00;99.90
19435;DHT22;9853;50.848;4.108;2023-04-24T08:30:00;12.20;99.90
19435;DHT22;9853;50.848;4.108;2023-04-24T08:32:00;12.60;99.90
19435;DHT22;9853;50.848;4.108;2023-04-24T08:34:04;13.50;99.90
19435;DHT22;9853;50.848;4.108;2023-04-24T08:36:06;14.10;99.90
19435;DHT22;9853;50.848;4.108;2023-04-24T08:38:07;14.60;99.90
19435;DHT22;9853;50.848;4.108;2023-04-24T08:40:13;14.30;99.90
19435;DHT22;9853;50.848;4.108;2023-04-24T08:42:18;14.70;99.90
19435;DHT22;9853;50.848;4.108;2023-04-24T08:44:23;15.00;99.90
19435;DHT22;9853;50.848;4.108;2023-04-24T08:46:24;15.80;99.90
19435;DHT22;9853;50.848;4.108;2023-04-24T08:48:25;16.40;99.90
19435;DHT22;9853;50.848;4.108;2023-04-24T08:50:27;15.90;99.90
19435;DHT22;9853;50.848;4.108;2023-04-24T08:52:29;15.10;99.90
19435;DHT22;9853;50.848;4.108;2023-04-24T08:54:34;15.20;99.90
19435;DHT22;9853;50.848;4.108;2023-04-24T09:15:01;13.60;99.90
19435;DHT22;9853;50.848;4.108;2023-04-24T09:17:32;14.10;99.90
19435;DHT22;9853;50.848;4.108;2023-04-24T09:19:36;14.50;99.90
19435;DHT22;9853;50.848;4.108;2023-04-24T09:21:37;15.00;99.90
19435;DHT22;9853;50.848;4.108;2023-04-24T09:23:38;15.50;99.90
19435;DHT22;9853;50.848;4.108;2023-04-24T09:25:39;15.30;99.90
19435;DHT22;9853;50.848;4.108;2023-04-24T09:27:42;14.90;99.90
19435;DHT22;9853;50.848;4.108;2023-04-24T09:29:56;14.60;99.90
19435;DHT22;9853;50.848;4.108;2023-04-24T09:31:57;14.20;99.90
19435;DHT22;9853;50.848;4.108;2023-04-24T09:34:00;13.50;99.90
19435;DHT22;9853;50.848;4.108;2023-04-24T09:36:04;13.30;99.90
19435;DHT22;9853;50.848;4.108;2023-04-24T09:38:06;13.20;99.90
19435;DHT22;9853;50.848;4.108;2023-04-24T09:40:19;12.80;99.90
19435;DHT22;9853;50.848;4.108;2023-04-24T09:42:21;12.70;99.90
19435;DHT22;9853;50.848;4.108;2023-04-24T09:44:28;12.90;99.90
19435;DHT22;9853;50.848;4.108;2023-04-24T09:46:30;12.80;99.90
19435;DHT22;9853;50.848;4.108;2023-04-24T09:48:37;12.80;99.90
19435;DHT22;9853;50.848;4.108;2023-04-24T09:50:49;12.80;99.90
19435;DHT22;9853;50.848;4.108;2023-04-24T09:53:05;12.70;99.90
19435;DHT22;9853;50.848;4.108;2023-04-24T09:55:11;12.70;99.90
19435;DHT22;9853;50.848;4.108;2023-04-24T09:57:14;12.90;99.90
19435;DHT22;9853;50.848;4.108;2023-04-24T09:59:19;13.00;99.90
19435;DHT22;9853;50.848;4.108;2023-04-24T10:01:31;13.00;99.90
19435;DHT22;9853;50.848;4.108;2023-04-24T10:03:35;13.20;99.90
19435;DHT22;9853;50.848;4.108;2023-04-24T10:05:39;13.10;99.90
19435;DHT22;9853;50.848;4.108;2023-04-24T10:08:05;13.10;99.90
19435;DHT22;9853;50.848;4.108;2023-04-24T10:10:07;13.40;99.90
19435;DHT22;9853;50.848;4.108;2023-04-24T10:12:20;13.00;99.90
19435;DHT22;9853;50.848;4.108;2023-04-24T10:14:23;13.00;99.90
19435;DHT22;9853;50.848;4.108;2023-04-24T10:16:42;13.00;99.90
19435;DHT22;9853;50.848;4.108;2023-04-24T10:19:11;13.10;99.90
19435;DHT22;9853;50.848;4.108;2023-04-24T10:21:22;13.30;99.90
19435;DHT22;9853;50.848;4.108;2023-04-24T10:23:30;13.70;99.90
19435;DHT22;9853;50.848;4.108;2023-04-24T10:25:37;13.70;99.90
19435;DHT22;9853;50.848;4.108;2023-04-24T10:27:39;13.60;99.90
19435;DHT22;9853;50.848;4.108;2023-04-24T10:32:43;13.60;99.90
19435;DHT22;9853;50.848;4.108;2023-04-24T10:41:14;13.80;99.90
19435;DHT22;9853;50.848;4.108;2023-04-24T10:43:24;13.90;99.90
19435;DHT22;9853;50.848;4.108;2023-04-24T10:45:28;14.20;99.90
19435;DHT22;9853;50.848;4.108;2023-04-24T10:47:29;14.30;99.90
19435;DHT22;9853;50.848;4.108;2023-04-24T10:49:35;14.10;99.90
19435;DHT22;9853;50.848;4.108;2023-04-24T10:51:53;14.00;99.90
19435;DHT22;9853;50.848;4.108;2023-04-24T10:53:57;14.10;99.90
19435;DHT22;9853;50.848;4.108;2023-04-24T10:56:15;14.00;99.90
19435;DHT22;9853;50.848;4.108;2023-04-24T10:58:24;13.70;99.90
19435;DHT22;9853;50.848;4.108;2023-04-24T11:00:29;13.40;99.90
19435;DHT22;9853;50.848;4.108;2023-04-24T11:02:39;13.20;99.90
19435;DHT22;9853;50.848;4.108;2023-04-24T11:04:51;13.30;99.90
19435;DHT22;9853;50.848;4.108;2023-04-24T11:07:10;13.70;99.90
19435;DHT22;9853;50.848;4.108;2023-04-24T11:09:15;13.70;99.90
19435;DHT22;9853;50.848;4.108;2023-04-24T11:11:35;13.90;99.90
19435;DHT22;9853;50.848;4.108;2023-04-24T11:16:34;14.10;99.90
19435;DHT22;9853;50.848;4.108;2023-04-24T11:19:09;14.10;99.90
19435;DHT22;9853;50.848;4.108;2023-04-24T11:21:18;14.10;99.90
19435;DHT22;9853;50.848;4.108;2023-04-24T11:23:19;13.60;99.90
19435;DHT22;9853;50.848;4.108;2023-04-24T11:25:23;13.60;99.90
19435;DHT22;9853;50.848;4.108;2023-04-24T11:27:44;13.60;99.90
19435;DHT22;9853;50.848;4.108;2023-04-24T11:29:59;13.40;99.90
19435;DHT22;9853;50.848;4.108;2023-04-24T11:32:15;13.60;99.90
19435;DHT22;9853;50.848;4.108;2023-04-24T11:34:18;13.50;99.90
19435;DHT22;9853;50.848;4.108;2023-04-24T11:36:19;13.80;99.90
19435;DHT22;9853;50.848;4.108;2023-04-24T11:38:21;13.90;99.90
19435;DHT22;9853;50.848;4.108;2023-04-24T11:40:22;14.20;99.90
19435;DHT22;9853;50.848;4.108;2023-04-24T11:42:24;14.20;99.90
19435;DHT22;9853;50.848;4.108;2023-04-24T11:44:28;14.40;99.90
19435;DHT22;9853;50.848;4.108;2023-04-24T11:46:30;14.20;99.90
19435;DHT22;9853;50.848;4.108;2023-04-24T11:48:35;13.70;99.90
19435;DHT22;9853;50.848;4.108;2023-04-24T11:50:46;13.30;99.90
19435;DHT22;9853;50.848;4.108;2023-04-24T11:52:48;13.50;99.90
19435;DHT22;9853;50.848;4.108;2023-04-24T11:54:54;13.50;99.90
19435;DHT22;9853;50.848;4.108;2023-04-24T11:57:04;13.10;99.90
19435;DHT22;9853;50.848;4.108;2023-04-24T11:59:06;13.10;99.90
19435;DHT22;9853;50.848;4.108;2023-04-24T12:01:08;13.40;99.90
19435;DHT22;9853;50.848;4.108;2023-04-24T12:03:18;13.60;99.90
19435;DHT22;9853;50.848;4.108;2023-04-24T12:05:23;14.00;99.90
19435;DHT22;9853;50.848;4.108;2023-04-24T12:07:25;13.90;99.90
19435;DHT22;9853;50.848;4.108;2023-04-24T12:09:26;14.00;99.90
19435;DHT22;9853;50.848;4.108;2023-04-24T12:11:31;13.80;99.90
19435;DHT22;9853;50.848;4.108;2023-04-24T12:13:33;13.30;99.90
19435;DHT22;9853;50.848;4.108;2023-04-24T12:15:35;13.00;99.90
19435;DHT22;9853;50.848;4.108;2023-04-24T12:17:36;13.20;99.90
19435;DHT22;9853;50.848;4.108;2023-04-24T12:19:48;13.40;99.90
19435;DHT22;9853;50.848;4.108;2023-04-24T12:22:18;13.40;99.90
19435;DHT22;9853;50.848;4.108;2023-04-24T12:24:20;13.70;99.90
19435;DHT22;9853;50.848;4.108;2023-04-24T12:26:27;13.80;99.90
19435;DHT22;9853;50.848;4.108;2023-04-24T12:28:39;13.80;99.90
19435;DHT22;9853;50.848;4.108;2023-04-24T12:30:42;14.00;99.90
19435;DHT22;9853;50.848;4.108;2023-04-24T12:32:49;14.10;99.90
19435;DHT22;9853;50.848;4.108;2023-04-24T12:34:55;14.10;99.90
19435;DHT22;9853;50.848;4.108;2023-04-24T12:37:10;14.30;99.90
19435;DHT22;9853;50.848;4.108;2023-04-24T12:39:18;14.40;99.90
19435;DHT22;9853;50.848;4.108;2023-04-24T12:41:36;14.80;99.90
19435;DHT22;9853;50.848;4.108;2023-04-24T12:43:52;14.40;99.90
19435;DHT22;9853;50.848;4.108;2023-04-24T12:45:57;14.30;99.90
19435;DHT22;9853;50.848;4.108;2023-04-24T12:48:02;13.80;99.90
19435;DHT22;9853;50.848;4.108;2023-04-24T12:50:19;13.90;99.90
19435;DHT22;9853;50.848;4.108;2023-04-24T12:52:23;14.00;99.90
19435;DHT22;9853;50.848;4.108;2023-04-24T12:54:25;14.10;99.90
19435;DHT22;9853;50.848;4.108;2023-04-24T12:56:33;14.00;99.90
19435;DHT22;9853;50.848;4.108;2023-04-24T12:58:38;14.00;99.90
19435;DHT22;9853;50.848;4.108;2023-04-24T13:01:06;14.20;99.90
19435;DHT22;9853;50.848;4.108;2023-04-24T13:03:14;14.20;99.90
19435;DHT22;9853;50.848;4.108;2023-04-24T13:05:38;14.30;99.90
19435;DHT22;9853;50.848;4.108;2023-04-24T13:07:39;14.70;99.90
19435;DHT22;9853;50.848;4.108;2023-04-24T13:09:51;15.10;99.90
19435;DHT22;9853;50.848;4.108;2023-04-24T13:11:57;15.50;99.90
19435;DHT22;9853;50.848;4.108;2023-04-24T13:14:25;15.30;99.90
19435;DHT22;9853;50.848;4.108;2023-04-24T13:16:26;14.90;99.90
19435;DHT22;9853;50.848;4.108;2023-04-24T13:18:27;14.70;99.90
19435;DHT22;9853;50.848;4.108;2023-04-24T13:20:31;14.80;99.90
19435;DHT22;9853;50.848;4.108;2023-04-24T13:22:33;14.80;99.90
19435;DHT22;9853;50.848;4.108;2023-04-24T13:24:34;14.80;99.90
19435;DHT22;9853;50.848;4.108;2023-04-24T13:26:42;14.70;99.90
19435;DHT22;9853;50.848;4.108;2023-04-24T13:28:59;14.40;99.90
19435;DHT22;9853;50.848;4.108;2023-04-24T13:31:00;14.20;99.90
19435;DHT22;9853;50.848;4.108;2023-04-24T13:33:22;14.30;99.90
19435;DHT22;9853;50.848;4.108;2023-04-24T13:35:34;14.60;99.90
19435;DHT22;9853;50.848;4.108;2023-04-24T13:38:17;14.50;99.90
19435;DHT22;9853;50.848;4.108;2023-04-24T13:40:28;14.40;99.90
19435;DHT22;9853;50.848;4.108;2023-04-24T13:42:29;14.90;99.90
19435;DHT22;9853;50.848;4.108;2023-04-24T13:44:30;15.10;99.90
19435;DHT22;9853;50.848;4.108;2023-04-24T13:46:31;14.70;99.90
19435;DHT22;9853;50.848;4.108;2023-04-24T13:48:32;14.60;99.90